createdAt,value
2023-01-12T00:02:02.096Z,13.05
2023-01-12T00:04:31.131Z,16.00
2023-01-12T00:06:59.501Z,20.33
2023-01-12T00:09:27.087Z,16.45
2023-01-12T00:11:57.091Z,14.23
2023-01-12T00:14:25.101Z,14.60
2023-01-12T00:16:52.053Z,20.90
2023-01-12T00:19:23.352Z,19.70
2023-01-12T00:22:13.611Z,17.90
2023-01-12T00:24:45.835Z,13.20
2023-01-12T00:27:19.245Z,10.73
2023-01-12T00:29:46.485Z,20.40
2023-01-12T00:32:16.620Z,14.68
2023-01-12T00:34:44.110Z,22.02
2023-01-12T00:37:12.111Z,20.13
2023-01-12T00:39:42.975Z,22.30
2023-01-12T00:42:31.812Z,16.80
2023-01-12T00:45:17.200Z,22.98
2023-01-12T00:47:44.222Z,22.15
2023-01-12T00:50:11.292Z,19.58
2023-01-12T00:52:39.686Z,21.77
2023-01-12T00:55:06.986Z,19.88
2023-01-12T00:57:34.050Z,15.65
2023-01-12T01:00:01.006Z,16.88
2023-01-12T01:02:29.017Z,19.92
2023-01-12T01:04:56.768Z,19.77
2023-01-12T01:07:24.327Z,20.00
2023-01-12T01:09:51.779Z,19.90
2023-01-12T01:12:19.044Z,18.48
2023-01-12T01:14:47.614Z,19.02
2023-01-12T01:17:15.090Z,18.73
2023-01-12T01:19:43.463Z,13.07
2023-01-12T01:22:10.724Z,20.33
2023-01-12T01:24:37.683Z,18.73
2023-01-12T01:27:04.668Z,20.40
2023-01-12T01:29:31.601Z,18.50
2023-01-12T01:31:58.537Z,21.30
2023-01-12T01:34:25.518Z,25.10
2023-01-12T01:36:52.490Z,23.67
2023-01-12T01:39:19.460Z,22.67
2023-01-12T01:41:48.175Z,20.60
2023-01-12T01:44:30.232Z,24.70
2023-01-12T01:47:03.271Z,22.48
2023-01-12T01:49:37.121Z,16.38
2023-01-12T01:52:09.470Z,22.65
2023-01-12T01:54:41.758Z,15.93
2023-01-12T01:57:12.123Z,15.70
2023-01-12T01:59:42.771Z,17.23
2023-01-12T02:02:09.991Z,18.85
2023-01-12T02:04:37.185Z,15.60
2023-01-12T02:07:07.040Z,17.20
2023-01-12T02:09:34.082Z,19.20
2023-01-12T02:12:32.439Z,18.48
2023-01-12T02:15:18.393Z,20.33
2023-01-12T02:17:48.616Z,19.52
2023-01-12T02:20:40.942Z,18.02
2023-01-12T02:23:23.148Z,15.32
2023-01-12T02:26:22.440Z,23.90
2023-01-12T02:29:21.471Z,16.23
2023-01-12T02:32:09.767Z,16.48
2023-01-12T02:35:01.744Z,25.23
2023-01-12T02:38:06.137Z,14.95
2023-01-12T02:40:46.262Z,19.85
2023-01-12T02:43:25.509Z,17.23
2023-01-12T02:46:11.817Z,12.93
2023-01-12T02:48:41.271Z,18.58
2023-01-12T02:51:18.319Z,14.27
2023-01-12T02:53:55.615Z,17.40
2023-01-12T02:56:31.564Z,14.68
2023-01-12T02:59:04.141Z,17.45
2023-01-12T03:01:34.207Z,13.88
2023-01-12T03:04:05.159Z,12.85
2023-01-12T03:09:42.637Z,13.40
2023-01-12T03:12:20.302Z,13.85
2023-01-12T03:14:51.160Z,11.23
2023-01-12T03:19:55.158Z,12.07
2023-01-12T03:22:23.546Z,13.07
2023-01-12T03:24:58.525Z,8.27
2023-01-12T03:27:30.606Z,14.15
2023-01-12T03:30:02.500Z,17.25
2023-01-12T03:32:30.789Z,10.55
2023-01-12T03:34:59.289Z,15.88
2023-01-12T03:37:32.922Z,15.30
2023-01-12T03:40:26.421Z,11.85
2023-01-12T03:43:04.602Z,17.63
2023-01-12T03:45:46.952Z,12.98
2023-01-12T03:48:58.646Z,14.00
2023-01-12T03:51:30.429Z,17.27
2023-01-12T03:53:58.731Z,14.70
2023-01-12T03:56:30.043Z,14.23
2023-01-12T03:58:57.642Z,14.77
2023-01-12T04:01:24.955Z,9.85
2023-01-12T04:03:52.002Z,10.90
2023-01-12T04:06:18.979Z,11.02
2023-01-12T04:08:45.912Z,13.35
2023-01-12T04:11:31.301Z,11.32
2023-01-12T04:13:58.346Z,12.73
2023-01-12T04:16:25.402Z,9.02
2023-01-12T04:18:52.381Z,13.88
2023-01-12T04:21:38.038Z,10.70
2023-01-12T04:24:09.170Z,12.73
2023-01-12T04:26:36.164Z,5.75
2023-01-12T04:29:03.163Z,9.40
2023-01-12T04:31:30.181Z,8.50
2023-01-12T04:33:57.129Z,11.07
2023-01-12T04:36:24.176Z,8.82
2023-01-12T04:38:51.141Z,8.68
2023-01-12T04:41:18.123Z,10.93
2023-01-12T04:43:46.522Z,9.57
2023-01-12T04:46:13.591Z,11.73
2023-01-12T04:48:43.768Z,8.30
2023-01-12T04:51:10.746Z,9.75
2023-01-12T04:53:37.783Z,8.43
2023-01-12T04:56:06.280Z,8.93
2023-01-12T04:58:33.638Z,13.45
2023-01-12T05:01:11.112Z,8.10
2023-01-12T05:03:38.373Z,6.40
2023-01-12T05:06:06.328Z,15.15
2023-01-12T05:08:51.676Z,11.60
2023-01-12T05:11:18.738Z,12.02
2023-01-12T05:13:53.462Z,8.38
2023-01-12T05:16:20.609Z,7.70
2023-01-12T05:18:47.957Z,7.47
2023-01-12T05:21:18.061Z,10.77
2023-01-12T05:23:45.829Z,10.23
2023-01-12T05:26:13.951Z,13.00
2023-01-12T05:28:41.327Z,9.65
2023-01-12T05:31:11.106Z,7.68
2023-01-12T05:33:39.987Z,7.35
2023-01-12T05:36:15.284Z,8.35
2023-01-12T05:38:42.667Z,10.95
2023-01-12T05:41:11.944Z,9.70
2023-01-12T05:43:51.074Z,8.95
2023-01-12T05:46:26.940Z,8.55
2023-01-12T05:48:55.924Z,7.00
2023-01-12T05:51:24.841Z,8.13
2023-01-12T05:53:52.173Z,9.52
2023-01-12T05:56:28.065Z,7.75
2023-01-12T05:59:00.225Z,6.93
2023-01-12T06:01:29.123Z,10.50
2023-01-12T06:03:58.336Z,9.23
2023-01-12T06:06:26.896Z,8.20
2023-01-12T06:08:54.928Z,8.75
2023-01-12T06:11:40.833Z,6.07
2023-01-12T06:14:09.243Z,8.50
2023-01-12T06:16:40.963Z,6.68
2023-01-12T06:19:09.530Z,8.48
2023-01-12T06:21:38.588Z,6.65
2023-01-12T06:24:05.962Z,8.18
2023-01-12T06:26:32.987Z,5.35
2023-01-12T06:29:00.620Z,10.60
2023-01-12T06:31:27.676Z,7.53
2023-01-12T06:33:54.663Z,7.18
2023-01-12T06:36:21.668Z,9.45
2023-01-12T06:38:48.647Z,10.13
2023-01-12T06:41:33.954Z,7.82
2023-01-12T06:44:00.950Z,6.15
2023-01-12T06:46:28.713Z,7.70
2023-01-12T06:48:57.280Z,10.43
2023-01-12T06:51:24.780Z,11.95
2023-01-12T06:53:51.984Z,8.45
2023-01-12T06:56:18.980Z,9.10
2023-01-12T06:58:45.933Z,12.68
2023-01-12T07:01:13.932Z,10.80
2023-01-12T07:03:41.048Z,8.70
2023-01-12T07:06:08.171Z,10.73
2023-01-12T07:08:35.788Z,8.88
2023-01-12T07:11:03.969Z,9.27
2023-01-12T07:13:31.787Z,9.63
2023-01-12T07:16:02.384Z,9.15
2023-01-12T07:18:30.552Z,8.27
2023-01-12T07:20:57.649Z,12.25
2023-01-12T07:23:24.680Z,9.02
2023-01-12T07:25:51.690Z,7.13
2023-01-12T07:28:18.648Z,8.38
2023-01-12T07:30:46.525Z,8.07
2023-01-12T07:33:16.665Z,9.65
2023-01-12T07:35:45.528Z,9.23
2023-01-12T07:38:12.547Z,8.35
2023-01-12T07:40:39.506Z,10.95
2023-01-12T07:43:08.808Z,9.75
2023-01-12T07:45:36.047Z,8.18
2023-01-12T07:48:03.158Z,8.02
2023-01-12T07:50:30.206Z,11.43
2023-01-12T07:53:01.499Z,10.90
2023-01-12T07:55:29.335Z,9.48
2023-01-12T07:58:03.566Z,7.45
2023-01-12T08:00:31.164Z,10.57
2023-01-12T08:03:06.353Z,10.18
2023-01-12T08:05:34.344Z,7.70
2023-01-12T08:08:03.436Z,8.93
2023-01-12T08:10:30.899Z,8.32
2023-01-12T08:12:57.903Z,10.13
2023-01-12T08:15:27.253Z,7.18
2023-01-12T08:18:06.541Z,8.02
2023-01-12T08:20:36.174Z,7.03
2023-01-12T08:23:12.628Z,5.72
2023-01-12T08:25:44.756Z,12.55
2023-01-12T08:28:19.915Z,8.18
2023-01-12T08:30:48.942Z,12.30
2023-01-12T08:33:16.355Z,10.45
2023-01-12T08:35:44.403Z,9.27
2023-01-12T08:38:11.432Z,15.05
2023-01-12T08:40:56.646Z,15.50
2023-01-12T08:43:42.151Z,17.35
2023-01-12T08:46:10.036Z,14.82
2023-01-12T08:48:38.401Z,14.32
2023-01-12T08:51:08.106Z,14.18
2023-01-12T08:53:35.614Z,16.25
2023-01-12T08:56:02.704Z,14.38
2023-01-12T08:58:29.766Z,13.68
2023-01-12T09:00:56.983Z,14.25
2023-01-12T09:03:24.060Z,9.38
2023-01-12T09:05:51.042Z,15.18
2023-01-12T09:08:17.993Z,17.77
2023-01-12T09:10:44.904Z,18.90
2023-01-12T09:13:15.798Z,17.77
2023-01-12T09:18:33.823Z,14.75
2023-01-12T09:21:05.810Z,14.05
2023-01-12T09:23:33.524Z,15.90
2023-01-12T09:26:05.080Z,17.00
2023-01-12T09:28:32.566Z,19.20
2023-01-12T09:31:13.628Z,18.75
2023-01-12T09:33:41.351Z,18.23
2023-01-12T09:36:11.253Z,21.05
2023-01-12T09:38:40.195Z,19.85
2023-01-12T09:41:40.893Z,17.85
2023-01-12T09:44:41.749Z,24.17
2023-01-12T09:47:20.840Z,22.77
2023-01-12T09:50:07.987Z,22.40
2023-01-12T09:52:41.089Z,24.00
2023-01-12T09:55:18.423Z,25.63
2023-01-12T09:57:51.409Z,25.83
2023-01-12T10:00:20.356Z,26.83
2023-01-12T10:02:55.542Z,26.70
2023-01-12T10:05:43.684Z,28.15
2023-01-12T10:08:25.214Z,24.90
2023-01-12T10:11:36.440Z,25.67
2023-01-12T10:17:08.109Z,22.17
2023-01-12T10:20:09.586Z,23.13
2023-01-12T10:22:51.009Z,27.15
2023-01-12T10:25:24.472Z,26.33
2023-01-12T10:27:54.836Z,29.98
2023-01-12T10:33:15.717Z,25.20
2023-01-12T10:36:07.437Z,27.77
2023-01-12T10:38:36.332Z,25.05
2023-01-12T10:41:21.056Z,34.55
2023-01-12T10:43:59.892Z,29.40
2023-01-12T10:46:32.521Z,36.13
2023-01-12T10:49:21.893Z,30.35
2023-01-12T10:51:54.864Z,24.52
2023-01-12T10:54:24.269Z,28.38
2023-01-12T10:57:17.810Z,27.65
2023-01-12T10:59:55.770Z,25.80
2023-01-12T11:02:26.480Z,27.52
2023-01-12T11:04:54.524Z,24.88
2023-01-12T11:07:31.032Z,27.48
2023-01-12T11:10:26.930Z,29.60
2023-01-12T11:12:57.637Z,25.55
2023-01-12T11:15:25.591Z,23.65
2023-01-12T11:18:01.580Z,27.45
2023-01-12T11:20:43.337Z,26.10
2023-01-12T11:23:25.596Z,25.23
2023-01-12T11:25:53.327Z,28.17
2023-01-12T11:28:46.622Z,39.08
2023-01-12T11:31:27.212Z,21.35
2023-01-12T11:34:11.488Z,20.38
2023-01-12T11:36:47.956Z,30.92
2023-01-12T11:39:18.186Z,25.67
2023-01-12T11:42:19.274Z,32.92
2023-01-12T11:45:04.727Z,26.33
2023-01-12T11:47:39.760Z,24.50
2023-01-12T11:50:17.275Z,20.45
2023-01-12T11:52:45.905Z,20.35
2023-01-12T11:55:23.766Z,24.92
2023-01-12T11:58:06.681Z,32.45
2023-01-12T12:01:05.774Z,21.83
2023-01-12T12:03:49.479Z,18.58
2023-01-12T12:06:28.662Z,18.65
2023-01-12T12:09:27.706Z,20.00
2023-01-12T12:11:59.489Z,20.52
2023-01-12T12:14:52.134Z,15.23
2023-01-12T12:17:47.026Z,18.13
2023-01-12T12:20:48.894Z,20.75
2023-01-12T12:23:29.240Z,18.58
2023-01-12T12:26:45.179Z,22.38
2023-01-12T12:29:24.817Z,19.10
2023-01-12T12:32:00.349Z,17.67
2023-01-12T12:34:52.233Z,22.75
2023-01-12T12:37:44.198Z,18.75
2023-01-12T12:40:20.267Z,19.48
2023-01-12T12:43:32.990Z,24.70
2023-01-12T12:46:18.987Z,22.58
2023-01-12T12:49:00.731Z,21.88
2023-01-12T12:51:30.961Z,23.38
2023-01-12T12:53:59.245Z,17.83
2023-01-12T12:56:28.544Z,14.95
2023-01-12T12:58:57.620Z,29.27
2023-01-12T13:01:24.898Z,19.90
2023-01-12T13:03:56.865Z,26.48
2023-01-12T13:06:29.433Z,15.50
2023-01-12T13:09:14.257Z,20.00
2023-01-12T13:12:09.248Z,15.02
2023-01-12T13:14:39.218Z,20.58
2023-01-12T13:17:26.217Z,21.47
2023-01-12T13:20:08.213Z,23.83
2023-01-12T13:22:46.073Z,16.55
2023-01-12T13:25:24.538Z,19.88
2023-01-12T13:28:03.155Z,20.92
2023-01-12T13:30:30.166Z,20.05
2023-01-12T13:33:15.467Z,21.85
2023-01-12T13:35:45.167Z,18.80
2023-01-12T13:38:33.999Z,18.42
2023-01-12T13:41:14.070Z,25.17
2023-01-12T13:43:57.938Z,19.70
2023-01-12T13:46:36.031Z,25.52
2023-01-12T13:49:04.476Z,26.15
2023-01-12T13:51:45.602Z,25.58
2023-01-12T13:54:15.662Z,25.23
2023-01-12T13:56:43.668Z,25.35
2023-01-12T13:59:19.252Z,23.83
2023-01-12T14:01:48.890Z,33.65
2023-01-12T14:04:20.426Z,24.05
2023-01-12T14:07:09.822Z,28.42
2023-01-12T14:10:06.799Z,28.85
2023-01-12T14:13:01.656Z,31.95
2023-01-12T14:15:55.884Z,34.03
2023-01-12T14:18:26.165Z,27.45
2023-01-12T14:20:55.782Z,24.15
2023-01-12T14:23:22.809Z,27.27
2023-01-12T14:26:10.689Z,30.55
2023-01-12T14:28:39.670Z,31.08
2023-01-12T14:31:10.027Z,25.95
2023-01-12T14:33:38.865Z,35.25
2023-01-12T14:36:12.574Z,32.35
2023-01-12T14:38:44.317Z,25.10
2023-01-12T14:41:36.838Z,28.20
2023-01-12T14:44:22.911Z,33.60
2023-01-12T14:46:52.655Z,29.20
2023-01-12T14:49:22.465Z,29.45
2023-01-12T14:51:56.537Z,31.55
2023-01-12T14:54:31.649Z,27.98
2023-01-12T14:57:07.886Z,29.20
2023-01-12T14:59:47.345Z,25.42
2023-01-12T15:02:14.263Z,38.65
2023-01-12T15:04:52.094Z,29.23
2023-01-12T15:07:21.025Z,29.58
2023-01-12T15:09:59.785Z,33.78
2023-01-12T15:12:29.455Z,30.90
2023-01-12T15:15:14.522Z,27.95
2023-01-12T15:18:00.233Z,35.45
2023-01-12T15:20:47.180Z,24.70
2023-01-12T15:23:33.344Z,25.98
2023-01-12T15:26:00.300Z,25.63
2023-01-12T15:28:28.308Z,34.33
2023-01-12T15:30:55.865Z,27.80
2023-01-12T15:33:22.951Z,27.02
2023-01-12T15:35:49.902Z,38.05
2023-01-12T15:38:16.971Z,38.60
2023-01-12T15:40:45.131Z,34.10
2023-01-12T15:43:14.974Z,36.58
2023-01-12T15:45:46.563Z,39.22
2023-01-12T15:48:14.471Z,40.03
2023-01-12T15:50:44.037Z,31.42
2023-01-12T15:53:23.105Z,26.27
2023-01-12T15:55:50.201Z,46.72
2023-01-12T15:58:17.692Z,41.55
2023-01-12T16:00:55.240Z,35.15
2023-01-12T16:03:53.623Z,38.67
2023-01-12T16:06:09.156Z,35.30
2023-01-12T16:08:36.368Z,35.35
2023-01-12T16:11:12.472Z,35.00
2023-01-12T16:13:40.404Z,33.10
2023-01-12T16:16:08.725Z,36.03
2023-01-12T16:18:38.932Z,24.95
2023-01-12T16:21:05.997Z,32.97
2023-01-12T16:23:33.384Z,38.05
2023-01-12T16:26:01.576Z,30.55
2023-01-12T16:28:29.338Z,32.33
2023-01-12T16:30:56.906Z,35.75
2023-01-12T16:33:25.015Z,24.30
2023-01-12T16:35:55.384Z,34.83
2023-01-12T16:38:22.377Z,25.88
2023-01-12T16:40:50.751Z,33.83
2023-01-12T16:43:21.077Z,25.88
2023-01-12T16:45:48.590Z,36.55
2023-01-12T16:48:15.609Z,32.25
2023-01-12T16:50:43.948Z,33.00
2023-01-12T16:53:12.107Z,32.92
2023-01-12T16:55:39.356Z,35.00
2023-01-12T16:58:06.693Z,36.05
2023-01-12T17:00:35.928Z,38.38
2023-01-12T17:03:03.731Z,31.45
2023-01-12T17:05:30.933Z,37.67
2023-01-12T17:08:00.924Z,33.42
2023-01-12T17:10:28.257Z,38.50
2023-01-12T17:12:58.032Z,39.05
2023-01-12T17:15:28.185Z,36.13
2023-01-12T17:17:56.370Z,29.90
2023-01-12T17:20:23.571Z,36.35
2023-01-12T17:22:51.233Z,30.17
2023-01-12T17:25:18.843Z,36.40
2023-01-12T17:27:45.920Z,32.75
2023-01-12T17:30:13.254Z,37.80
2023-01-12T17:32:40.401Z,35.00
2023-01-12T17:35:09.632Z,32.72
2023-01-12T17:37:37.073Z,34.58
2023-01-12T17:40:04.704Z,29.88
2023-01-12T17:42:50.099Z,32.75
2023-01-12T17:45:17.200Z,32.65
2023-01-12T17:47:44.131Z,24.08
2023-01-12T17:50:11.723Z,30.00
2023-01-12T17:52:38.904Z,26.60
2023-01-12T17:55:06.805Z,26.77
2023-01-12T17:57:36.636Z,36.80
2023-01-12T18:00:09.266Z,38.78
2023-01-12T18:02:36.478Z,34.72
2023-01-12T18:05:03.806Z,36.30
2023-01-12T18:07:32.206Z,33.58
2023-01-12T18:09:59.380Z,30.90
2023-01-12T18:12:27.632Z,27.20
2023-01-12T18:14:57.280Z,35.67
2023-01-12T18:17:24.355Z,32.70
2023-01-12T18:19:52.734Z,34.50
2023-01-12T18:22:19.831Z,35.80
2023-01-12T18:24:50.217Z,32.60
2023-01-12T18:27:17.696Z,38.67
2023-01-12T18:29:44.673Z,31.42
2023-01-12T18:32:11.728Z,32.25
2023-01-12T18:34:41.614Z,30.40
2023-01-12T18:37:08.756Z,24.17
2023-01-12T18:39:35.821Z,36.30
2023-01-12T18:42:21.559Z,33.40
2023-01-12T18:44:49.213Z,31.73
2023-01-12T18:47:34.725Z,28.83
2023-01-12T18:50:21.636Z,33.00
2023-01-12T18:53:07.265Z,33.90
2023-01-12T18:55:37.633Z,28.95
2023-01-12T18:58:04.575Z,34.33
2023-01-12T19:00:31.506Z,29.42
2023-01-12T19:02:59.833Z,31.38
2023-01-12T19:05:37.317Z,22.58
2023-01-12T19:08:24.518Z,30.83
2023-01-12T19:10:51.596Z,34.25
2023-01-12T19:13:37.136Z,28.55
2023-01-12T19:16:22.843Z,28.50
2023-01-12T19:18:49.835Z,30.90
2023-01-12T19:21:35.274Z,35.03
2023-01-12T19:24:21.002Z,32.42
2023-01-12T19:27:06.693Z,32.10
2023-01-12T19:29:35.554Z,26.30
2023-01-12T19:32:02.963Z,30.88
2023-01-12T19:34:29.915Z,29.00
2023-01-12T19:36:56.828Z,30.50
2023-01-12T19:39:46.509Z,29.90
2023-01-12T19:42:32.013Z,31.60
2023-01-12T19:44:58.959Z,33.33
2023-01-12T19:47:25.867Z,36.20
2023-01-12T19:49:52.810Z,29.15
2023-01-12T19:52:20.547Z,25.80
2023-01-12T19:54:48.008Z,31.20
2023-01-12T19:57:15.206Z,28.48
2023-01-12T19:59:42.251Z,29.98
2023-01-12T20:02:10.316Z,28.38
2023-01-12T20:04:37.370Z,26.27
2023-01-12T20:07:04.297Z,24.35
2023-01-12T20:09:31.216Z,26.58
2023-01-12T20:11:58.146Z,25.70
2023-01-12T20:14:25.107Z,29.33
2023-01-12T20:16:52.037Z,25.65
2023-01-12T20:19:20.627Z,35.40
2023-01-12T20:21:48.140Z,38.80
2023-01-12T20:24:15.684Z,30.13
2023-01-12T20:26:43.041Z,41.08
2023-01-12T20:29:09.980Z,26.15
2023-01-12T20:31:37.085Z,27.52
2023-01-12T20:34:04.155Z,34.90
2023-01-12T20:36:31.482Z,39.42
2023-01-12T20:38:59.378Z,35.80
2023-01-12T20:41:26.413Z,32.03
2023-01-12T20:43:53.375Z,33.45
2023-01-12T20:46:20.423Z,38.00
2023-01-12T20:48:47.446Z,36.10
2023-01-12T20:51:16.521Z,40.85
2023-01-12T20:53:43.734Z,39.45
2023-01-12T20:56:11.033Z,39.05
2023-01-12T20:58:38.013Z,36.92
2023-01-12T21:01:12.858Z,41.17
2023-01-12T21:03:40.447Z,33.53
2023-01-12T21:06:16.262Z,35.83
2023-01-12T21:08:44.838Z,35.33
2023-01-12T21:11:13.943Z,34.25
2023-01-12T21:13:40.902Z,36.85
2023-01-12T21:16:12.382Z,35.28
2023-01-12T21:18:39.431Z,39.28
2023-01-12T21:21:06.572Z,28.08
2023-01-12T21:23:33.578Z,33.47
2023-01-12T21:26:00.559Z,37.70
2023-01-12T21:28:30.202Z,34.00
2023-01-12T21:31:03.401Z,28.93
2023-01-12T21:33:31.000Z,34.40
2023-01-12T21:35:58.734Z,26.95
2023-01-12T21:38:26.635Z,38.85
2023-01-12T21:40:54.442Z,36.88
2023-01-12T21:43:21.780Z,34.35
2023-01-12T21:45:51.361Z,29.15
2023-01-12T21:48:22.094Z,30.85
2023-01-12T21:50:49.058Z,23.20
2023-01-12T21:53:21.636Z,32.83
2023-01-12T21:56:00.695Z,30.00
2023-01-12T21:58:29.991Z,35.33
2023-01-12T22:00:57.694Z,32.00
2023-01-12T22:03:26.246Z,35.05
2023-01-12T22:05:54.554Z,30.67
2023-01-12T22:08:22.308Z,34.70
2023-01-12T22:10:49.334Z,33.08
2023-01-12T22:13:17.667Z,25.38
2023-01-12T22:15:45.129Z,30.55
2023-01-12T22:18:12.139Z,36.88
2023-01-12T22:20:40.163Z,37.35
2023-01-12T22:23:07.618Z,33.20
2023-01-12T22:25:34.621Z,30.83
2023-01-12T22:28:01.611Z,31.75
2023-01-12T22:30:29.102Z,30.05
2023-01-12T22:32:56.351Z,31.02
2023-01-12T22:35:23.620Z,31.92
2023-01-12T22:37:51.020Z,33.58
2023-01-12T22:40:18.692Z,26.27
2023-01-12T22:43:04.456Z,26.48
2023-01-12T22:45:34.118Z,27.63
2023-01-12T22:48:01.189Z,27.58
2023-01-12T22:50:28.349Z,30.95
2023-01-12T22:52:56.508Z,27.45
2023-01-12T22:55:25.526Z,33.50
2023-01-12T22:57:52.957Z,28.60
2023-01-12T23:00:20.752Z,28.17
2023-01-12T23:03:00.101Z,31.38
2023-01-12T23:05:43.405Z,29.85
2023-01-12T23:08:10.452Z,30.33
2023-01-12T23:10:37.395Z,29.58
2023-01-12T23:13:17.810Z,28.20
2023-01-12T23:15:58.180Z,34.70
2023-01-12T23:18:28.879Z,22.35
2023-01-12T23:21:11.380Z,26.00
2023-01-12T23:23:39.283Z,31.80
2023-01-12T23:26:13.653Z,20.52
2023-01-12T23:28:45.494Z,19.85
2023-01-12T23:31:15.039Z,27.17
2023-01-12T23:33:43.329Z,25.90
2023-01-12T23:36:13.711Z,29.67
2023-01-12T23:38:40.760Z,27.77
2023-01-12T23:41:16.760Z,28.30
2023-01-12T23:43:44.319Z,27.02
2023-01-12T23:46:12.279Z,29.40
2023-01-12T23:48:41.136Z,27.88
2023-01-12T23:51:08.129Z,30.48
2023-01-12T23:53:35.789Z,22.63
2023-01-12T23:56:08.543Z,27.17
2023-01-12T23:58:36.061Z,28.05
